createdAt,value
2022-09-17T00:01:16.917Z,100392.19
2022-09-17T00:03:45.457Z,100398.81
2022-09-17T00:06:14.120Z,100394.13
2022-09-17T00:08:43.455Z,100404.44
2022-09-17T00:11:13.866Z,100404.09
2022-09-17T00:13:41.814Z,100403.25
2022-09-17T00:16:10.179Z,100407.75
2022-09-17T00:18:41.554Z,100416.06
2022-09-17T00:21:17.003Z,100414.72
2022-09-17T00:23:46.963Z,100413.03
2022-09-17T00:26:15.126Z,100424.25
2022-09-17T00:28:45.398Z,100417.47
2022-09-17T00:31:13.309Z,100420.59
2022-09-17T00:33:41.031Z,100423.41
2022-09-17T00:36:09.332Z,100423.91
2022-09-17T00:38:37.218Z,100422.00
2022-09-17T00:41:07.727Z,100427.56
2022-09-17T00:43:39.328Z,100423.75
2022-09-17T00:46:16.870Z,100426.63
2022-09-17T00:48:45.704Z,100433.13
2022-09-17T00:51:17.211Z,100443.13
2022-09-17T00:53:44.986Z,100435.41
2022-09-17T00:56:22.962Z,100440.47
2022-09-17T00:58:52.442Z,100434.69
2022-09-17T01:01:20.510Z,100442.31
2022-09-17T01:03:49.240Z,100435.16
2022-09-17T01:06:23.960Z,100437.81
2022-09-17T01:09:10.791Z,100435.06
2022-09-17T01:11:54.869Z,100438.03
2022-09-17T01:14:38.113Z,100429.72
2022-09-17T01:17:15.839Z,100415.34
2022-09-17T01:20:27.865Z,100409.81
2022-09-17T01:23:10.431Z,100423.66
2022-09-17T01:25:49.837Z,100420.66
2022-09-17T01:28:33.908Z,100422.31
2022-09-17T01:31:29.078Z,100412.41
2022-09-17T01:34:03.892Z,100412.22
2022-09-17T01:36:43.889Z,100412.22
2022-09-17T01:39:19.728Z,100409.50
2022-09-17T01:41:54.555Z,100414.56
2022-09-17T01:44:30.942Z,100418.69
2022-09-17T01:47:05.719Z,100420.25
2022-09-17T01:49:36.577Z,100421.63
2022-09-17T01:52:05.352Z,100417.03
2022-09-17T01:54:41.933Z,100407.75
2022-09-17T01:57:16.410Z,100406.94
2022-09-17T01:59:49.723Z,100409.59
2022-09-17T02:02:25.388Z,100414.19
2022-09-17T02:04:58.934Z,100413.09
2022-09-17T02:07:26.923Z,100408.81
2022-09-17T02:10:00.535Z,100411.09
2022-09-17T02:12:34.318Z,100406.44
2022-09-17T02:15:06.738Z,100401.88
2022-09-17T02:17:40.316Z,100397.75
2022-09-17T02:20:08.613Z,100399.63
2022-09-17T02:22:43.418Z,100400.41
2022-09-17T02:25:17.483Z,100399.63
2022-09-17T02:27:53.998Z,100407.53
2022-09-17T02:30:21.771Z,100403.66
2022-09-17T02:32:51.452Z,100405.44
2022-09-17T02:35:19.592Z,100408.97
2022-09-17T02:37:47.639Z,100403.34
2022-09-17T02:40:18.768Z,100413.50
2022-09-17T02:43:06.594Z,100402.47
2022-09-17T02:45:46.225Z,100401.69
2022-09-17T02:48:48.751Z,100415.00
2022-09-17T02:51:30.713Z,100416.75
2022-09-17T02:54:09.858Z,100413.69
2022-09-17T02:56:48.203Z,100413.75
2022-09-17T02:59:22.321Z,100420.09
2022-09-17T03:01:57.185Z,100427.34
2022-09-17T03:04:29.171Z,100436.44
2022-09-17T03:06:59.499Z,100330.88
2022-09-17T03:09:27.260Z,99998.06
2022-09-17T03:11:54.982Z,99055.03
2022-09-17T03:14:22.741Z,98619.91
2022-09-17T03:16:50.403Z,97689.66
2022-09-17T03:19:18.349Z,97855.53
2022-09-17T03:21:47.828Z,98039.78
2022-09-17T03:24:15.509Z,97989.22
2022-09-17T03:26:43.233Z,98064.38
2022-09-17T03:29:10.915Z,97997.22
2022-09-17T03:31:38.650Z,98044.41
2022-09-17T03:34:06.673Z,97927.31
2022-09-17T03:36:34.866Z,97823.78
2022-09-17T03:39:03.947Z,97889.88
2022-09-17T03:41:31.735Z,97905.00
2022-09-17T03:43:59.428Z,97939.84
2022-09-17T03:46:27.601Z,98012.84
2022-09-17T03:48:55.284Z,98064.88
2022-09-17T03:51:23.135Z,98074.59
2022-09-17T03:53:50.873Z,98134.28
2022-09-17T03:56:20.055Z,98178.50
2022-09-17T03:58:47.770Z,98240.97
2022-09-17T04:01:15.558Z,98260.59
2022-09-17T04:03:43.349Z,98290.94
2022-09-17T04:06:11.080Z,98325.53
2022-09-17T04:08:38.781Z,98396.06
2022-09-17T04:11:07.811Z,98424.44
2022-09-17T04:13:37.232Z,98457.78
2022-09-17T04:16:05.246Z,98485.31
2022-09-17T04:18:33.071Z,98534.41
2022-09-17T04:21:00.772Z,98531.56
2022-09-17T04:23:28.432Z,98545.28
2022-09-17T04:25:56.449Z,98582.16
2022-09-17T04:28:24.416Z,98580.81
2022-09-17T04:30:53.519Z,98624.66
2022-09-17T04:33:21.263Z,98639.75
2022-09-17T04:35:49.160Z,98675.31
2022-09-17T04:38:20.487Z,98663.22
2022-09-17T04:40:48.197Z,98684.22
2022-09-17T04:43:16.113Z,98687.34
2022-09-17T04:45:46.739Z,98732.50
2022-09-17T04:48:15.939Z,98763.16
2022-09-17T04:50:43.716Z,98761.72
2022-09-17T04:53:12.512Z,98764.78
2022-09-17T04:55:40.265Z,98781.53
2022-09-17T04:58:07.977Z,98832.69
2022-09-17T05:00:35.781Z,98834.66
2022-09-17T05:03:03.903Z,98861.66
2022-09-17T05:05:33.005Z,98849.38
2022-09-17T05:08:00.800Z,98878.63
2022-09-17T05:10:28.544Z,98851.41
2022-09-17T05:12:57.499Z,98837.34
2022-09-17T05:15:27.775Z,98893.22
2022-09-17T05:17:55.544Z,98878.91
2022-09-17T05:20:23.429Z,98901.16
2022-09-17T05:22:53.778Z,98910.19
2022-09-17T05:25:24.135Z,98913.25
2022-09-17T05:27:52.573Z,98898.75
2022-09-17T05:30:20.595Z,98911.75
2022-09-17T05:32:48.643Z,98892.00
2022-09-17T05:35:16.786Z,98886.16
2022-09-17T05:37:44.502Z,98904.09
2022-09-17T05:40:13.692Z,98897.88
2022-09-17T05:42:41.450Z,98884.97
2022-09-17T05:45:09.862Z,98887.13
2022-09-17T05:47:37.581Z,98904.34
2022-09-17T05:50:06.002Z,98887.34
2022-09-17T05:52:33.745Z,98896.16
2022-09-17T05:55:01.424Z,98872.03
2022-09-17T05:57:31.414Z,98865.53
2022-09-17T05:59:59.399Z,98875.94
2022-09-17T06:02:27.135Z,98884.22
2022-09-17T06:04:54.811Z,98870.50
2022-09-17T06:07:22.526Z,98863.47
2022-09-17T06:09:50.194Z,98883.19
2022-09-17T06:12:17.917Z,98898.09
2022-09-17T06:14:46.999Z,98871.38
2022-09-17T06:17:17.034Z,98892.06
2022-09-17T06:19:47.914Z,98866.88
2022-09-17T06:22:15.634Z,98901.09
2022-09-17T06:24:43.315Z,98849.53
2022-09-17T06:27:11.004Z,98857.53
2022-09-17T06:29:38.679Z,98856.25
2022-09-17T06:32:10.948Z,98858.06
2022-09-17T06:34:38.660Z,98863.91
2022-09-17T06:37:06.674Z,98875.81
2022-09-17T06:39:34.636Z,98869.06
2022-09-17T06:42:03.160Z,98894.41
2022-09-17T06:44:30.892Z,98901.03
2022-09-17T06:46:58.599Z,98874.63
2022-09-17T06:49:28.835Z,98911.13
2022-09-17T06:51:56.547Z,98893.03
2022-09-17T06:54:24.228Z,98883.31
2022-09-17T06:56:54.480Z,98879.81
2022-09-17T06:59:22.281Z,98885.81
2022-09-17T07:01:50.205Z,98895.06
2022-09-17T07:04:18.953Z,98963.44
2022-09-17T07:06:48.116Z,98918.94
2022-09-17T07:09:15.897Z,98900.16
2022-09-17T07:11:43.620Z,98919.50
2022-09-17T07:14:11.466Z,98906.94
2022-09-17T07:16:39.152Z,98970.00
2022-09-17T07:19:07.044Z,98942.34
2022-09-17T07:21:34.740Z,99009.94
2022-09-17T07:24:04.100Z,99043.47
2022-09-17T07:26:31.811Z,99079.63
2022-09-17T07:28:59.590Z,99073.56
2022-09-17T07:31:27.445Z,99135.69
2022-09-17T07:33:55.182Z,99142.81
2022-09-17T07:36:22.911Z,99173.16
2022-09-17T07:38:50.685Z,99172.91
2022-09-17T07:41:19.770Z,99179.78
2022-09-17T07:43:47.570Z,99195.25
2022-09-17T07:46:17.422Z,99198.81
2022-09-17T07:48:46.159Z,99207.97
2022-09-17T07:51:17.038Z,99201.50
2022-09-17T07:53:45.066Z,99225.16
2022-09-17T07:56:13.024Z,99257.56
2022-09-17T07:58:42.256Z,99263.91
2022-09-17T08:01:11.603Z,99254.91
2022-09-17T08:03:41.081Z,99240.19
2022-09-17T08:06:10.789Z,99234.47
2022-09-17T08:08:40.508Z,99240.97
2022-09-17T08:11:10.061Z,99226.50
2022-09-17T08:13:38.329Z,99238.34
2022-09-17T08:16:09.754Z,99246.44
2022-09-17T08:18:37.788Z,99245.25
2022-09-17T08:21:07.614Z,99246.97
2022-09-17T08:23:37.432Z,99208.00
2022-09-17T08:26:07.177Z,99205.72
2022-09-17T08:28:35.675Z,99197.13
2022-09-17T08:31:05.689Z,99205.13
2022-09-17T08:33:39.009Z,99173.81
2022-09-17T08:36:08.686Z,99151.16
2022-09-17T08:38:38.571Z,99156.00
2022-09-17T08:41:20.408Z,99137.31
2022-09-17T08:43:55.200Z,99121.22
2022-09-17T08:46:24.677Z,99117.16
2022-09-17T08:49:03.464Z,99114.88
2022-09-17T08:51:40.084Z,99120.00
2022-09-17T08:54:18.535Z,99081.75
2022-09-17T08:56:48.547Z,99084.59
2022-09-17T08:59:27.860Z,99074.75
2022-09-17T09:02:02.013Z,99057.13
2022-09-17T09:04:55.713Z,99029.13
2022-09-17T09:07:28.468Z,99024.09
2022-09-17T09:10:09.554Z,98995.88
2022-09-17T09:12:38.920Z,99003.72
2022-09-17T09:15:18.293Z,98994.16
2022-09-17T09:17:48.941Z,98983.50
2022-09-17T09:20:23.671Z,98966.78
2022-09-17T09:22:53.050Z,98951.34
2022-09-17T09:25:24.192Z,98964.56
2022-09-17T09:28:11.964Z,98952.13
2022-09-17T09:30:52.322Z,98923.81
2022-09-17T09:33:29.477Z,98900.75
2022-09-17T09:35:58.637Z,98906.69
2022-09-17T09:38:33.916Z,98903.00
2022-09-17T09:41:09.872Z,98898.03
2022-09-17T09:44:02.705Z,98886.19
2022-09-17T09:46:51.493Z,98864.53
2022-09-17T09:49:37.506Z,98866.72
2022-09-17T09:52:27.215Z,98855.97
2022-09-17T09:55:07.931Z,98856.88
2022-09-17T09:57:44.809Z,98841.34
2022-09-17T10:00:31.915Z,98841.88
2022-09-17T10:03:10.313Z,98847.63
2022-09-17T10:05:38.093Z,98851.41
2022-09-17T10:08:14.076Z,98856.19
2022-09-17T10:10:55.892Z,98813.78
2022-09-17T10:13:24.195Z,98803.41
2022-09-17T10:15:51.909Z,98797.41
2022-09-17T10:18:21.399Z,98793.13
2022-09-17T10:20:54.562Z,98715.13
2022-09-17T10:23:25.099Z,98679.59
2022-09-17T10:25:55.566Z,98670.31
2022-09-17T10:28:33.671Z,98659.94
2022-09-17T10:31:08.605Z,98625.69
2022-09-17T10:33:40.741Z,98593.84
2022-09-17T10:36:10.142Z,98556.59
2022-09-17T10:38:41.413Z,98553.53
2022-09-17T10:41:18.381Z,98522.91
2022-09-17T10:43:46.767Z,98583.97
2022-09-17T10:46:27.797Z,99451.16
2022-09-17T10:49:09.205Z,99998.06
2022-09-17T10:51:37.911Z,100243.22
2022-09-17T10:54:40.621Z,100464.34
2022-09-17T10:57:13.941Z,100578.50
2022-09-17T10:59:59.565Z,100619.47
2022-09-17T11:03:15.958Z,100639.78
2022-09-17T11:06:13.709Z,100678.72
2022-09-17T11:08:55.042Z,100678.09
2022-09-17T11:11:40.330Z,100697.47
2022-09-17T11:14:21.864Z,100687.25
2022-09-17T11:16:57.479Z,100695.16
2022-09-17T11:19:31.964Z,100691.06
2022-09-17T11:22:13.013Z,100695.56
2022-09-17T11:24:56.881Z,100697.66
2022-09-17T11:27:36.267Z,100706.06
2022-09-17T11:30:11.253Z,100715.44
2022-09-17T11:33:17.765Z,100724.84
2022-09-17T11:35:49.217Z,100710.81
2022-09-17T11:38:24.235Z,100748.44
2022-09-17T11:41:00.237Z,100751.09
2022-09-17T11:43:32.449Z,100742.22
2022-09-17T11:46:04.840Z,100713.44
2022-09-17T11:48:38.515Z,100700.47
2022-09-17T11:51:20.179Z,100718.31
2022-09-17T11:53:53.394Z,100721.13
2022-09-17T11:56:26.696Z,100743.63
2022-09-17T11:59:01.726Z,100777.22
2022-09-17T12:01:37.043Z,100821.06
2022-09-17T12:04:20.521Z,100845.22
2022-09-17T12:06:57.970Z,100878.69
2022-09-17T12:09:29.270Z,100884.44
2022-09-17T12:12:02.483Z,100874.16
2022-09-17T12:14:44.690Z,100840.19
2022-09-17T12:17:18.339Z,100787.69
2022-09-17T12:19:51.065Z,100780.09
2022-09-17T12:22:22.967Z,100758.41
2022-09-17T12:24:52.208Z,100742.28
2022-09-17T12:27:31.712Z,100728.66
2022-09-17T12:30:18.263Z,100726.91
2022-09-17T12:33:15.236Z,100747.22
2022-09-17T12:36:04.347Z,100764.09
2022-09-17T12:39:03.072Z,100774.66
2022-09-17T12:41:40.878Z,100780.28
2022-09-17T12:44:25.664Z,100798.38
2022-09-17T12:47:12.951Z,100799.69
2022-09-17T12:49:59.057Z,100816.97
2022-09-17T12:52:43.911Z,100812.09
2022-09-17T12:55:26.812Z,100812.28
2022-09-17T12:58:06.386Z,100812.91
2022-09-17T13:00:41.354Z,100798.88
2022-09-17T13:03:19.679Z,100752.81
2022-09-17T13:06:05.064Z,100673.63
2022-09-17T13:09:04.798Z,100490.75
2022-09-17T13:12:04.585Z,100346.53
2022-09-17T13:14:49.515Z,100167.22
2022-09-17T13:17:24.221Z,99978.50
2022-09-17T13:20:01.647Z,99896.88
2022-09-17T13:22:33.645Z,99711.84
2022-09-17T13:25:07.676Z,99473.25
2022-09-17T13:27:38.222Z,99292.09
2022-09-17T13:30:07.561Z,99049.50
2022-09-17T13:32:50.540Z,98867.31
2022-09-17T13:35:50.959Z,98757.75
2022-09-17T13:38:24.340Z,98766.34
2022-09-17T13:40:53.002Z,98677.19
2022-09-17T13:43:26.542Z,98618.84
2022-09-17T13:46:12.906Z,98626.03
2022-09-17T13:48:55.006Z,98634.50
2022-09-17T13:51:59.257Z,98678.09
2022-09-17T13:54:38.910Z,98709.22
2022-09-17T13:57:15.777Z,98724.16
2022-09-17T13:59:55.270Z,98692.69
2022-09-17T14:02:36.561Z,98711.09
2022-09-17T14:05:25.733Z,98697.78
2022-09-17T14:08:12.785Z,98717.66
2022-09-17T14:10:47.101Z,98739.22
2022-09-17T14:13:46.625Z,98742.00
2022-09-17T14:16:47.699Z,98851.91
2022-09-17T14:19:40.755Z,98874.09
2022-09-17T14:22:17.322Z,98898.25
2022-09-17T14:24:52.281Z,98893.16
2022-09-17T14:27:42.242Z,98912.97
2022-09-17T14:30:17.246Z,98888.22
2022-09-17T14:33:00.363Z,98888.84
2022-09-17T14:35:35.196Z,98798.31
2022-09-17T14:38:09.729Z,98691.34
2022-09-17T14:40:44.537Z,98582.44
2022-09-17T14:43:19.475Z,98513.56
2022-09-17T14:45:50.793Z,98479.13
2022-09-17T14:48:28.998Z,98335.63
2022-09-17T14:51:35.569Z,98347.34
2022-09-17T14:54:26.114Z,98377.25
2022-09-17T14:56:59.880Z,98396.63
2022-09-17T14:59:49.017Z,98444.78
2022-09-17T15:02:38.554Z,98472.81
2022-09-17T15:05:28.467Z,98477.53
2022-09-17T15:08:14.177Z,98507.19
2022-09-17T15:10:49.420Z,98537.72
2022-09-17T15:13:20.385Z,98528.16
2022-09-17T15:15:59.962Z,98541.97
2022-09-17T15:18:38.503Z,98543.59
2022-09-17T15:21:22.078Z,98560.16
2022-09-17T15:23:54.935Z,98585.84
2022-09-17T15:26:26.720Z,98611.75
2022-09-17T15:28:57.505Z,98618.81
2022-09-17T15:31:29.733Z,98620.53
2022-09-17T15:34:00.843Z,98622.72
2022-09-17T15:36:31.581Z,98627.00
2022-09-17T15:38:59.935Z,98620.94
2022-09-17T15:41:36.057Z,98608.28
2022-09-17T15:44:29.832Z,98614.81
2022-09-17T15:47:34.453Z,98602.59
2022-09-17T15:50:13.474Z,98625.16
2022-09-17T15:52:41.881Z,98619.34
2022-09-17T15:55:45.382Z,98638.06
2022-09-17T15:58:25.821Z,98742.59
2022-09-17T16:01:45.312Z,98747.66
2022-09-17T16:04:22.354Z,98762.59
2022-09-17T16:06:55.003Z,98783.03
2022-09-17T16:09:41.928Z,98787.69
2022-09-17T16:12:12.755Z,98783.78
2022-09-17T16:14:43.849Z,98767.59
2022-09-17T16:17:43.540Z,98761.81
2022-09-17T16:20:16.905Z,98772.34
2022-09-17T16:22:48.308Z,98772.75
2022-09-17T16:25:17.055Z,98789.16
2022-09-17T16:27:49.312Z,98780.34
2022-09-17T16:30:18.885Z,98766.16
2022-09-17T16:32:46.853Z,98766.56
2022-09-17T16:35:17.487Z,98753.03
2022-09-17T16:37:49.234Z,98741.16
2022-09-17T16:40:17.378Z,98735.16
2022-09-17T16:42:45.210Z,98734.81
2022-09-17T16:45:13.605Z,98737.88
2022-09-17T16:47:42.621Z,98721.19
2022-09-17T16:50:13.283Z,98703.38
2022-09-17T16:52:41.087Z,98695.56
2022-09-17T16:55:11.839Z,98684.94
2022-09-17T16:57:39.525Z,98669.72
2022-09-17T17:00:11.339Z,98676.53
2022-09-17T17:02:39.381Z,98647.34
2022-09-17T17:05:07.857Z,98625.25
2022-09-17T17:07:36.830Z,98603.50
2022-09-17T17:10:05.126Z,98600.75
2022-09-17T17:12:34.199Z,98585.22
2022-09-17T17:15:02.516Z,98600.03
2022-09-17T17:17:30.954Z,98587.53
2022-09-17T17:19:58.685Z,98613.22
2022-09-17T17:22:29.735Z,98613.41
2022-09-17T17:24:58.061Z,98590.78
2022-09-17T17:27:26.008Z,98602.25
2022-09-17T17:29:55.018Z,98606.91
2022-09-17T17:32:22.826Z,98597.84
2022-09-17T17:34:51.216Z,98599.72
2022-09-17T17:37:18.911Z,98612.66
2022-09-17T17:39:46.628Z,98629.53
2022-09-17T17:42:15.018Z,98641.25
2022-09-17T17:44:42.824Z,98644.66
2022-09-17T17:47:12.198Z,98652.66
2022-09-17T17:49:40.171Z,98639.47
2022-09-17T17:52:07.892Z,98650.44
2022-09-17T17:54:35.804Z,98666.91
2022-09-17T17:57:03.475Z,98689.09
2022-09-17T17:59:31.897Z,98723.28
2022-09-17T18:01:59.756Z,98744.84
2022-09-17T18:04:28.958Z,98740.34
2022-09-17T18:06:56.599Z,98771.06
2022-09-17T18:09:24.283Z,98791.50
2022-09-17T18:11:51.995Z,98821.19
2022-09-17T18:14:19.737Z,98832.78
2022-09-17T18:16:47.438Z,98842.22
2022-09-17T18:19:15.181Z,98864.13
2022-09-17T18:21:44.309Z,98920.75
2022-09-17T18:24:12.121Z,98948.34
2022-09-17T18:26:39.871Z,98937.72
2022-09-17T18:29:08.346Z,98942.19
2022-09-17T18:31:37.854Z,98953.19
2022-09-17T18:34:08.127Z,98915.44
2022-09-17T18:36:37.671Z,98902.13
2022-09-17T18:39:56.947Z,98903.94
2022-09-17T18:41:56.790Z,98908.28
2022-09-17T18:44:25.137Z,98907.22
2022-09-17T18:46:52.883Z,98903.38
2022-09-17T18:49:20.579Z,98909.28
2022-09-17T18:51:48.273Z,98912.78
2022-09-17T18:54:17.564Z,98930.75
2022-09-17T18:56:45.256Z,98949.19
2022-09-17T18:59:13.009Z,98971.84
2022-09-17T19:01:40.815Z,99017.41
2022-09-17T19:04:08.551Z,99103.19
2022-09-17T19:06:36.676Z,99110.63
2022-09-17T19:09:06.249Z,99089.09
2022-09-17T19:11:37.231Z,99031.84
2022-09-17T19:14:05.283Z,98961.03
2022-09-17T19:16:33.311Z,98944.25
2022-09-17T19:19:01.235Z,98942.19
2022-09-17T19:21:29.163Z,98949.97
2022-09-17T19:23:56.922Z,99112.91
2022-09-17T19:26:26.404Z,99172.81
2022-09-17T19:28:58.733Z,99185.34
2022-09-17T19:31:27.526Z,99133.44
2022-09-17T19:33:55.470Z,99104.16
2022-09-17T19:36:23.222Z,99048.13
2022-09-17T19:38:51.071Z,99017.91
2022-09-17T19:41:20.293Z,98990.50
2022-09-17T19:43:48.487Z,98974.53
2022-09-17T19:46:21.270Z,98978.38
2022-09-17T19:48:50.864Z,98951.41
2022-09-17T19:51:20.484Z,98942.63
2022-09-17T19:53:48.613Z,98929.53
2022-09-17T19:56:19.068Z,98946.31
2022-09-17T19:58:47.213Z,98936.25
2022-09-17T20:01:15.500Z,98920.53
2022-09-17T20:03:46.282Z,98927.50
2022-09-17T20:06:15.813Z,98892.50
2022-09-17T20:08:47.425Z,98876.03
2022-09-17T20:11:16.938Z,98867.72
2022-09-17T20:13:45.133Z,98845.63
2022-09-17T20:16:15.032Z,98865.44
2022-09-17T20:18:44.834Z,98888.22
2022-09-17T20:21:14.682Z,98874.28
2022-09-17T20:23:42.552Z,98857.69
2022-09-17T20:26:11.419Z,98841.88
2022-09-17T20:28:39.733Z,98823.69
2022-09-17T20:31:09.949Z,98820.78
2022-09-17T20:33:38.276Z,98827.34
2022-09-17T20:36:09.775Z,98848.09
2022-09-17T20:41:25.356Z,98815.09
2022-09-17T20:43:54.817Z,98833.00
2022-09-17T20:46:28.636Z,98829.06
2022-09-17T20:48:57.708Z,98827.66
2022-09-17T20:51:28.677Z,98813.75
2022-09-17T20:53:58.122Z,98807.47
2022-09-17T20:56:27.333Z,98835.03
2022-09-17T20:59:00.119Z,98803.91
2022-09-17T21:01:32.362Z,98824.78
2022-09-17T21:04:01.923Z,98816.41
2022-09-17T21:06:32.608Z,98812.63
2022-09-17T21:09:01.114Z,98800.59
2022-09-17T21:11:30.943Z,98786.59
2022-09-17T21:14:00.196Z,98792.25
2022-09-17T21:16:28.359Z,98796.50
2022-09-17T21:18:57.982Z,98785.06
2022-09-17T21:21:26.788Z,98779.59
2022-09-17T21:23:56.169Z,98789.63
2022-09-17T21:26:25.343Z,98795.94
2022-09-17T21:28:55.439Z,98822.56
2022-09-17T21:31:28.397Z,98831.63
2022-09-17T21:34:01.077Z,98827.97
2022-09-17T21:36:30.700Z,98863.84
2022-09-17T21:39:02.017Z,98901.91
2022-09-17T21:41:30.234Z,98925.47
2022-09-17T21:43:57.976Z,98921.13
2022-09-17T21:46:30.151Z,98949.75
2022-09-17T21:49:00.060Z,98937.50
2022-09-17T21:51:30.645Z,98934.47
2022-09-17T21:54:02.159Z,98924.22
2022-09-17T21:56:31.341Z,98922.13
2022-09-17T21:59:00.919Z,98909.44
2022-09-17T22:01:32.226Z,98926.50
2022-09-17T22:04:02.652Z,98935.28
2022-09-17T22:06:32.235Z,98952.00
2022-09-17T22:09:03.321Z,98966.78
2022-09-17T22:11:33.626Z,98986.78
2022-09-17T22:14:05.016Z,98986.63
2022-09-17T22:16:35.970Z,99001.31
2022-09-17T22:19:04.893Z,98996.63
2022-09-17T22:21:34.025Z,99022.75
2022-09-17T22:24:04.758Z,99020.38
2022-09-17T22:26:35.593Z,99027.72
2022-09-17T22:29:04.446Z,99015.44
2022-09-17T22:31:32.482Z,98999.91
2022-09-17T22:34:01.057Z,98998.91
2022-09-17T22:36:29.809Z,98978.84
2022-09-17T22:38:59.636Z,98953.25
2022-09-17T22:41:30.731Z,98937.09
2022-09-17T22:44:00.837Z,98909.66
2022-09-17T22:46:29.840Z,98894.09
2022-09-17T22:48:58.188Z,98894.34
2022-09-17T22:51:26.985Z,98866.53
2022-09-17T22:53:54.673Z,98864.41
2022-09-17T22:56:24.249Z,98851.38
2022-09-17T22:58:53.305Z,98825.69
2022-09-17T23:01:23.210Z,98843.03
2022-09-17T23:03:53.396Z,98834.81
2022-09-17T23:06:23.740Z,98824.59
2022-09-17T23:08:52.125Z,98818.84
2022-09-17T23:11:21.544Z,98812.94
2022-09-17T23:13:50.442Z,98817.50
2022-09-17T23:16:20.637Z,98804.81
2022-09-17T23:18:48.465Z,98783.34
2022-09-17T23:21:17.928Z,98769.22
2022-09-17T23:23:47.720Z,98766.78
2022-09-17T23:26:17.358Z,98773.16
2022-09-17T23:28:45.383Z,98757.41
2022-09-17T23:31:15.345Z,98736.56
2022-09-17T23:33:44.969Z,98726.94
2022-09-17T23:36:15.448Z,98710.13
2022-09-17T23:38:44.473Z,98707.38
2022-09-17T23:41:14.783Z,98706.94
2022-09-17T23:43:43.063Z,98702.66
2022-09-17T23:46:11.188Z,98696.91
2022-09-17T23:48:39.586Z,98689.41
2022-09-17T23:51:09.136Z,98708.47
2022-09-17T23:53:37.860Z,98698.81
2022-09-17T23:56:11.820Z,98669.25
2022-09-17T23:58:39.630Z,98673.72
